Qinhuangdao, China
Current Conditions -  °F | °C
As of 3:30 PM on Friday 19 Dec 2014 (Local Time) from ZYTL Reporting Station
Haze Haze  
Wind Chill: 38°   Ceiling: Unl
Heat Index: 43°   Visibility: 3mi
Dew Point: 27°   Wind: 9mph
Humidity: 53%   Direction: 290°WNW
Pressure: 30.09"   Gusts: NA
Location:  39.95°N, 119.59°E
Report Text: ZYTL 190730Z 29004MPS 5000 HZ NSC 06/M03 Q1019 NOSIG
Loading
Personal Weather Stations






























Interactive Weather Map New forecast layout! Learn more

10-Day Weather Forecast

Advertisements
Track Severe Weather on mobile